KTOP/TOP METAR and TAF weather

Enter ICAO airport designator
Station Type Date Time Source
KTOP METAR 2020/09/23 02:53 UTC NOAA

KTOP 230253Z AUTO 13003KT 10SM SCT027 OVC032 21/17 A3008 RMK AO2 SLP179 T02060167 50005


Station Type Date Time Source
KTOP Decoded METAR 2020/09/23 02:53 UTC NOAA

TOPEKA BILLARD MUNICIPAL AIRPORT, KS, United States (KTOP) 39-04N 95-38W 268M
Sep 22, 2020 - 10:53 PM EDT / 2020.09.23 0253 UTC
Wind: from the SE (130 degrees) at 3 MPH (3 KT):0
Visibility: 10 mile(s):0
Sky conditions: overcast
Temperature: 69.1 F (20.6 C)
Dew Point: 62.1 F (16.7 C)
Relative Humidity: 78%
Pressure (altimeter): 30.08 in. Hg (1018 hPa)
Pressure tendency: 0.01 inches (0.5 hPa) higher than three hours ago
ob: KTOP 230253Z AUTO 13003KT 10SM SCT027 OVC032 21/17 A3008 RMK AO2 SLP179 T02060167 50005
cycle: 3

Station Type Date Time Source
KTOP TAF 2020/09/22 18:24 UTC NOAA

TAF KTOP 221720Z 2218/2318 18006KT P6SM BKN250
FM230700 19004KT 5SM BR BKN009
FM231600 20006KT P6SM BKN015

Example: see airport list